createdAt,value
2023-06-16T00:02:18.862Z,16.00
2023-06-16T00:04:50.806Z,15.99
2023-06-16T00:07:20.920Z,15.99
2023-06-16T00:09:48.768Z,15.94
2023-06-16T00:12:16.491Z,15.87
2023-06-16T00:14:44.243Z,15.81
2023-06-16T00:17:13.507Z,15.68
2023-06-16T00:19:42.082Z,15.47
2023-06-16T00:22:10.878Z,15.68
2023-06-16T00:24:38.681Z,15.80
2023-06-16T00:27:07.012Z,15.76
2023-06-16T00:29:34.791Z,15.66
2023-06-16T00:32:02.627Z,15.47
2023-06-16T00:34:31.810Z,15.49
2023-06-16T00:37:00.040Z,15.36
2023-06-16T00:39:27.806Z,15.21
2023-06-16T00:41:55.975Z,15.43
2023-06-16T00:44:23.830Z,15.55
2023-06-16T00:46:51.805Z,15.54
2023-06-16T00:49:20.219Z,15.44
2023-06-16T00:51:50.493Z,15.45
2023-06-16T00:54:18.665Z,15.43
2023-06-16T00:56:46.577Z,15.68
2023-06-16T00:59:14.506Z,15.80
2023-06-16T01:01:42.290Z,16.05
2023-06-16T01:04:10.944Z,15.93
2023-06-16T01:06:52.578Z,15.95
2023-06-16T01:09:26.707Z,15.83
2023-06-16T01:12:08.212Z,15.81
2023-06-16T01:14:44.824Z,15.74
2023-06-16T01:17:16.458Z,15.63
2023-06-16T01:19:48.616Z,15.39
2023-06-16T01:22:23.653Z,15.51
2023-06-16T01:24:55.789Z,15.47
2023-06-16T01:27:24.227Z,15.56
2023-06-16T01:29:52.760Z,15.11
2023-06-16T01:32:22.632Z,14.96
2023-06-16T01:34:52.246Z,14.87
2023-06-16T01:37:20.780Z,14.86
2023-06-16T01:39:49.856Z,15.08
2023-06-16T01:42:19.909Z,15.34
2023-06-16T01:44:49.114Z,15.18
2023-06-16T01:47:17.069Z,14.92
2023-06-16T01:49:45.417Z,15.05
2023-06-16T01:52:13.248Z,14.97
2023-06-16T01:54:40.983Z,15.19
2023-06-16T01:57:09.051Z,15.27
2023-06-16T01:59:38.223Z,15.32
2023-06-16T02:02:14.668Z,15.05
2023-06-16T02:04:47.402Z,14.60
2023-06-16T02:07:20.627Z,14.44
2023-06-16T02:09:51.016Z,14.47
2023-06-16T02:12:19.434Z,14.37
2023-06-16T02:14:49.337Z,14.73
2023-06-16T02:17:17.087Z,14.75
2023-06-16T02:19:44.837Z,14.53
2023-06-16T02:22:12.669Z,14.81
2023-06-16T02:24:40.377Z,14.71
2023-06-16T02:27:10.105Z,14.62
2023-06-16T02:29:37.943Z,14.56
2023-06-16T02:32:08.256Z,14.76
2023-06-16T02:34:36.123Z,14.79
2023-06-16T02:37:04.174Z,14.55
2023-06-16T02:39:31.998Z,14.58
2023-06-16T02:42:00.917Z,14.76
2023-06-16T02:44:28.715Z,14.83
2023-06-16T02:46:58.172Z,14.85
2023-06-16T02:49:27.743Z,14.80
2023-06-16T02:51:55.641Z,14.53
2023-06-16T02:54:23.370Z,14.71
2023-06-16T02:56:51.115Z,14.86
2023-06-16T02:59:18.898Z,14.74
2023-06-16T03:01:46.689Z,14.44
2023-06-16T03:04:14.612Z,14.67
2023-06-16T03:06:46.191Z,14.87
2023-06-16T03:09:13.974Z,14.88
2023-06-16T03:11:42.793Z,14.52
2023-06-16T03:14:10.716Z,14.43
2023-06-16T03:16:41.935Z,14.64
2023-06-16T03:19:09.789Z,14.50
2023-06-16T03:21:38.383Z,14.79
2023-06-16T03:24:07.884Z,14.81
2023-06-16T03:26:37.497Z,14.85
2023-06-16T03:29:06.707Z,14.63
2023-06-16T03:31:34.739Z,14.54
2023-06-16T03:34:14.775Z,14.85
2023-06-16T03:36:50.691Z,14.66
2023-06-16T03:39:19.903Z,14.89
2023-06-16T03:41:47.636Z,14.46
2023-06-16T03:44:15.435Z,14.58
2023-06-16T03:46:43.137Z,14.61
2023-06-16T03:49:12.974Z,14.48
2023-06-16T03:51:41.225Z,14.41
2023-06-16T03:54:09.292Z,14.39
2023-06-16T03:56:38.382Z,14.63
2023-06-16T03:59:06.144Z,14.51
2023-06-16T04:01:33.999Z,14.74
2023-06-16T04:04:01.770Z,14.57
2023-06-16T04:06:29.570Z,14.72
2023-06-16T04:08:58.191Z,14.63
2023-06-16T04:11:27.620Z,14.60
2023-06-16T04:13:56.895Z,14.84
2023-06-16T04:16:24.635Z,14.84
2023-06-16T04:18:52.414Z,14.87
2023-06-16T04:21:20.176Z,14.97
2023-06-16T04:23:47.935Z,15.01
2023-06-16T04:26:20.325Z,14.94
2023-06-16T04:28:54.509Z,14.92
2023-06-16T04:31:23.908Z,14.90
2023-06-16T04:33:51.608Z,15.00
2023-06-16T04:36:20.634Z,15.12
2023-06-16T04:38:48.543Z,15.13
2023-06-16T04:41:16.265Z,15.23
2023-06-16T04:43:44.027Z,15.20
2023-06-16T04:46:12.007Z,15.29
2023-06-16T04:48:41.208Z,15.34
2023-06-16T04:51:09.389Z,15.45
2023-06-16T04:53:37.903Z,15.31
2023-06-16T04:56:07.786Z,15.27
2023-06-16T04:58:38.013Z,15.30
2023-06-16T05:01:05.780Z,15.34
2023-06-16T05:03:33.655Z,15.57
2023-06-16T05:06:03.008Z,15.75
2023-06-16T05:08:30.804Z,16.03
2023-06-16T05:10:58.541Z,16.22
2023-06-16T05:13:26.313Z,16.36
2023-06-16T05:15:54.729Z,16.58
2023-06-16T05:18:22.527Z,16.63
2023-06-16T05:20:50.560Z,16.53
2023-06-16T05:23:19.669Z,16.55
2023-06-16T05:25:47.431Z,16.40
2023-06-16T05:28:15.237Z,16.43
2023-06-16T05:30:43.021Z,16.19
2023-06-16T05:33:10.832Z,16.45
2023-06-16T05:35:38.686Z,16.35
2023-06-16T05:38:06.482Z,16.37
2023-06-16T05:40:36.352Z,16.62
2023-06-16T05:43:04.226Z,16.67
2023-06-16T05:45:31.968Z,16.64
2023-06-16T05:47:59.726Z,16.73
2023-06-16T05:50:27.502Z,16.71
2023-06-16T05:52:55.181Z,16.71
2023-06-16T05:55:23.097Z,16.68
2023-06-16T05:57:52.311Z,16.56
2023-06-16T06:00:20.900Z,16.91
2023-06-16T06:02:49.133Z,17.33
2023-06-16T06:05:17.355Z,17.51
2023-06-16T06:07:45.091Z,17.82
2023-06-16T06:10:12.926Z,18.08
2023-06-16T06:12:40.761Z,18.42
2023-06-16T06:15:11.886Z,18.81
2023-06-16T06:17:39.708Z,18.96
2023-06-16T06:20:08.762Z,19.30
2023-06-16T06:22:36.463Z,19.45
2023-06-16T06:25:05.613Z,19.36
2023-06-16T06:27:33.401Z,19.61
2023-06-16T06:30:01.173Z,19.84
2023-06-16T06:32:30.313Z,19.72
2023-06-16T06:34:58.039Z,19.96
2023-06-16T06:37:30.362Z,20.15
2023-06-16T06:39:58.270Z,20.23
2023-06-16T06:42:27.812Z,20.41
2023-06-16T06:44:55.661Z,20.68
2023-06-16T06:47:23.666Z,20.89
2023-06-16T06:49:52.834Z,20.90
2023-06-16T06:52:20.786Z,20.07
2023-06-16T06:54:48.744Z,20.36
2023-06-16T06:57:16.693Z,20.68
2023-06-16T06:59:44.619Z,20.65
2023-06-16T07:02:12.405Z,20.65
2023-06-16T07:04:40.933Z,21.47
2023-06-16T07:07:10.115Z,21.57
2023-06-16T07:09:37.921Z,21.49
2023-06-16T07:12:06.316Z,21.28
2023-06-16T07:14:34.080Z,21.77
2023-06-16T07:17:03.660Z,22.04
2023-06-16T07:19:31.401Z,22.38
2023-06-16T07:21:59.144Z,22.80
2023-06-16T07:24:28.424Z,22.63
2023-06-16T07:26:56.416Z,23.35
2023-06-16T07:29:24.166Z,22.53
2023-06-16T07:31:51.951Z,23.41
2023-06-16T07:34:19.832Z,23.96
2023-06-16T07:36:47.955Z,23.29
2023-06-16T07:39:15.709Z,23.01
2023-06-16T07:41:44.838Z,23.26
2023-06-16T07:44:12.598Z,23.25
2023-06-16T07:49:08.672Z,23.25
2023-06-16T07:51:36.487Z,23.75
2023-06-16T07:54:05.093Z,24.33
2023-06-16T07:56:32.827Z,24.87
2023-06-16T07:59:02.270Z,24.48
2023-06-16T08:01:30.196Z,24.49
2023-06-16T08:03:59.200Z,24.78
2023-06-16T08:06:28.273Z,24.80
2023-06-16T08:08:57.624Z,25.19
2023-06-16T08:11:25.540Z,25.58
2023-06-16T08:13:53.570Z,26.10
2023-06-16T08:16:22.912Z,26.18
2023-06-16T08:18:51.662Z,26.03
2023-06-16T08:21:20.627Z,26.70
2023-06-16T08:23:48.927Z,26.76
2023-06-16T08:26:17.064Z,27.02
2023-06-16T08:28:45.859Z,26.46
2023-06-16T08:31:13.932Z,25.98
2023-06-16T08:33:43.043Z,26.42
2023-06-16T08:36:11.139Z,26.15
2023-06-16T08:38:41.578Z,27.19
2023-06-16T08:41:11.344Z,27.23
2023-06-16T08:43:39.573Z,28.01
2023-06-16T08:46:10.200Z,27.74
2023-06-16T08:48:39.068Z,27.66
2023-06-16T08:51:12.233Z,27.58
2023-06-16T08:53:41.728Z,27.59
2023-06-16T08:56:11.943Z,28.14
2023-06-16T08:58:41.784Z,28.70
2023-06-16T09:01:09.966Z,28.76
2023-06-16T09:03:38.527Z,28.12
2023-06-16T09:06:10.411Z,27.41
2023-06-16T09:08:38.063Z,27.58
2023-06-16T09:11:08.798Z,27.13
2023-06-16T09:13:37.344Z,28.05
2023-06-16T09:16:07.150Z,27.23
2023-06-16T09:18:42.733Z,28.40
2023-06-16T09:21:12.614Z,28.09
2023-06-16T09:23:40.593Z,28.01
2023-06-16T09:26:13.363Z,28.07
2023-06-16T09:28:41.318Z,29.46
2023-06-16T09:31:13.432Z,29.81
2023-06-16T09:33:41.821Z,28.61
2023-06-16T09:36:11.396Z,27.12
2023-06-16T09:38:39.925Z,28.61
2023-06-16T09:41:11.978Z,28.87
2023-06-16T09:43:40.970Z,29.35
2023-06-16T09:46:11.460Z,29.69
2023-06-16T09:48:48.496Z,28.52
2023-06-16T09:51:22.996Z,28.19
2023-06-16T09:53:53.103Z,28.74
2023-06-16T09:56:21.620Z,29.52
2023-06-16T09:58:51.120Z,30.13
2023-06-16T10:01:20.704Z,29.19
2023-06-16T10:03:50.609Z,28.76
2023-06-16T10:06:23.054Z,27.93
2023-06-16T10:08:52.178Z,28.51
2023-06-16T10:11:21.127Z,29.19
2023-06-16T10:13:52.967Z,30.17
2023-06-16T10:16:24.141Z,30.46
2023-06-16T10:18:56.164Z,29.90
2023-06-16T10:21:25.593Z,30.20
2023-06-16T10:23:55.070Z,30.48
2023-06-16T10:26:23.629Z,28.47
2023-06-16T10:28:52.631Z,27.35
2023-06-16T10:31:20.888Z,28.32
2023-06-16T10:33:55.536Z,27.96
2023-06-16T10:36:25.958Z,27.58
2023-06-16T10:38:59.063Z,26.89
2023-06-16T10:41:27.845Z,27.90
2023-06-16T10:43:55.535Z,29.05
2023-06-16T10:46:23.564Z,30.61
2023-06-16T10:49:13.214Z,29.76
2023-06-16T10:51:43.931Z,30.69
2023-06-16T10:54:11.712Z,30.29
2023-06-16T10:59:56.013Z,30.39
2023-06-16T11:02:25.898Z,31.85
2023-06-16T11:05:16.352Z,31.52
2023-06-16T11:07:47.662Z,32.11
2023-06-16T11:10:20.111Z,32.61
2023-06-16T11:12:48.466Z,33.21
2023-06-16T11:15:16.455Z,32.60
2023-06-16T11:17:45.106Z,32.17
2023-06-16T11:20:14.525Z,30.70
2023-06-16T11:22:44.030Z,29.77
2023-06-16T11:25:14.202Z,29.56
2023-06-16T11:27:42.254Z,30.06
2023-06-16T11:30:10.549Z,30.10
2023-06-16T11:32:39.480Z,27.99
2023-06-16T11:35:08.243Z,29.01
2023-06-16T11:37:43.604Z,27.71
2023-06-16T11:40:12.810Z,27.42
2023-06-16T11:42:42.064Z,26.80
2023-06-16T11:45:10.597Z,28.26
2023-06-16T11:47:38.834Z,27.56
2023-06-16T11:50:07.927Z,26.51
2023-06-16T11:52:37.504Z,26.71
2023-06-16T11:55:06.153Z,26.97
2023-06-16T11:57:38.230Z,26.79
2023-06-16T12:00:09.878Z,25.81
2023-06-16T12:02:38.037Z,26.22
2023-06-16T12:05:08.602Z,26.34
2023-06-16T12:07:37.292Z,27.68
2023-06-16T12:10:06.531Z,29.90
2023-06-16T12:12:34.885Z,28.84
2023-06-16T12:15:04.720Z,27.40
2023-06-16T12:17:35.298Z,27.26
2023-06-16T12:20:07.875Z,26.63
2023-06-16T12:22:39.742Z,26.52
2023-06-16T12:25:11.700Z,26.43
2023-06-16T12:27:39.944Z,28.35
2023-06-16T12:30:09.089Z,30.06
2023-06-16T12:32:38.400Z,31.62
2023-06-16T12:35:07.068Z,30.20
2023-06-16T12:37:34.880Z,29.28
2023-06-16T12:40:07.370Z,28.18
2023-06-16T12:42:35.994Z,29.88
2023-06-16T12:45:06.482Z,28.37
2023-06-16T12:47:35.621Z,27.87
2023-06-16T12:50:07.085Z,27.43
2023-06-16T12:52:34.702Z,28.15
2023-06-16T12:55:04.791Z,30.22
2023-06-16T12:57:32.754Z,30.28
2023-06-16T13:00:00.624Z,30.51
2023-06-16T13:02:28.467Z,30.82
2023-06-16T13:04:56.577Z,31.31
2023-06-16T13:07:25.900Z,33.40
2023-06-16T13:09:53.663Z,33.19
2023-06-16T13:12:21.624Z,33.61
2023-06-16T13:14:49.468Z,33.33
2023-06-16T13:17:17.512Z,33.54
2023-06-16T13:19:47.400Z,34.55
2023-06-16T13:22:17.133Z,34.93
2023-06-16T13:24:46.355Z,33.27
2023-06-16T13:27:14.141Z,33.93
2023-06-16T13:29:41.897Z,33.67
2023-06-16T13:32:09.950Z,33.64
2023-06-16T13:34:37.760Z,35.16
2023-06-16T13:37:05.866Z,35.51
2023-06-16T13:39:33.678Z,33.95
2023-06-16T13:42:02.766Z,35.54
2023-06-16T13:44:30.553Z,34.47
2023-06-16T13:46:58.332Z,35.03
2023-06-16T13:49:26.191Z,35.51
2023-06-16T13:51:54.021Z,36.41
2023-06-16T13:54:21.809Z,33.66
2023-06-16T13:56:51.226Z,33.72
2023-06-16T13:59:20.445Z,33.17
2023-06-16T14:01:48.253Z,33.35
2023-06-16T14:04:16.038Z,33.36
2023-06-16T14:06:44.841Z,34.35
2023-06-16T14:09:12.665Z,34.39
2023-06-16T14:11:40.509Z,33.24
2023-06-16T14:14:08.302Z,34.57
2023-06-16T14:16:37.583Z,34.86
2023-06-16T14:19:06.044Z,34.01
2023-06-16T14:21:33.814Z,33.81
2023-06-16T14:24:01.665Z,33.42
2023-06-16T14:26:29.440Z,33.57
2023-06-16T14:28:57.215Z,35.05
2023-06-16T14:31:25.301Z,33.44
2023-06-16T14:33:55.909Z,33.69
2023-06-16T14:36:23.671Z,31.50
2023-06-16T14:38:51.507Z,33.13
2023-06-16T14:41:19.293Z,32.61
2023-06-16T14:43:47.119Z,32.42
2023-06-16T14:46:14.883Z,34.26
2023-06-16T14:48:42.659Z,34.33
2023-06-16T14:51:11.860Z,34.14
2023-06-16T14:53:39.662Z,32.82
2023-06-16T14:56:07.475Z,32.62
2023-06-16T14:58:35.282Z,33.56
2023-06-16T15:01:03.058Z,34.50
2023-06-16T15:03:30.938Z,35.11
2023-06-16T15:05:58.845Z,34.41
2023-06-16T15:08:27.998Z,33.42
2023-06-16T15:10:55.835Z,33.53
2023-06-16T15:13:23.552Z,32.55
2023-06-16T15:15:51.493Z,33.23
2023-06-16T15:18:19.358Z,33.10
2023-06-16T15:20:47.142Z,30.59
2023-06-16T15:23:14.921Z,29.75
2023-06-16T15:25:44.058Z,29.10
2023-06-16T15:28:13.145Z,28.76
2023-06-16T15:30:41.230Z,28.32
2023-06-16T15:33:09.099Z,28.25
2023-06-16T15:35:37.104Z,27.75
2023-06-16T15:38:04.965Z,28.43
2023-06-16T15:40:32.655Z,28.72
2023-06-16T15:43:06.432Z,29.55
2023-06-16T15:45:34.181Z,29.18
2023-06-16T15:48:02.776Z,27.47
2023-06-16T15:50:31.562Z,27.45
2023-06-16T15:52:59.314Z,27.80
2023-06-16T15:55:27.181Z,27.94
2023-06-16T15:57:54.972Z,27.95
2023-06-16T16:00:24.142Z,28.49
2023-06-16T16:02:52.031Z,27.88
2023-06-16T16:05:20.637Z,27.56
2023-06-16T16:07:48.444Z,28.16
2023-06-16T16:10:16.887Z,27.91
2023-06-16T16:12:44.654Z,27.81
2023-06-16T16:15:12.630Z,27.86
2023-06-16T16:17:41.898Z,27.88
2023-06-16T16:20:10.626Z,27.04
2023-06-16T16:22:38.454Z,27.28
2023-06-16T16:25:06.974Z,27.17
2023-06-16T16:27:37.113Z,27.44
2023-06-16T16:30:05.702Z,27.43
2023-06-16T16:32:33.465Z,27.37
2023-06-16T16:35:02.744Z,27.81
2023-06-16T16:37:30.467Z,27.73
2023-06-16T16:39:58.195Z,27.23
2023-06-16T16:42:26.095Z,27.58
2023-06-16T16:44:53.977Z,27.16
2023-06-16T16:47:21.813Z,27.06
2023-06-16T16:49:49.595Z,27.20
2023-06-16T16:52:18.684Z,26.77
2023-06-16T16:54:46.540Z,26.80
2023-06-16T16:57:14.483Z,26.59
2023-06-16T16:59:42.290Z,26.35
2023-06-16T17:02:10.132Z,26.53
2023-06-16T17:04:38.097Z,26.69
2023-06-16T17:07:08.182Z,26.74
2023-06-16T17:09:39.068Z,26.62
2023-06-16T17:12:07.925Z,26.29
2023-06-16T17:14:35.704Z,26.46
2023-06-16T17:17:03.492Z,26.44
2023-06-16T17:19:31.272Z,26.28
2023-06-16T17:21:59.280Z,26.08
2023-06-16T17:24:27.839Z,26.02
2023-06-16T17:26:57.512Z,26.13
2023-06-16T17:29:25.499Z,25.91
2023-06-16T17:31:53.261Z,25.80
2023-06-16T17:34:21.095Z,25.72
2023-06-16T17:36:48.807Z,25.50
2023-06-16T17:39:16.521Z,25.21
2023-06-16T17:41:44.447Z,25.21
2023-06-16T17:44:13.843Z,25.20
2023-06-16T17:46:42.230Z,25.08
2023-06-16T17:49:10.095Z,25.03
2023-06-16T17:54:05.995Z,25.03
2023-06-16T17:56:34.635Z,25.09
2023-06-16T17:59:02.896Z,24.96
2023-06-16T18:01:32.196Z,25.09
2023-06-16T18:04:00.380Z,25.04
2023-06-16T18:06:28.129Z,25.10
2023-06-16T18:08:56.614Z,25.19
2023-06-16T18:11:24.567Z,25.19
2023-06-16T18:13:52.445Z,25.04
2023-06-16T18:16:20.241Z,24.79
2023-06-16T18:18:49.370Z,24.87
2023-06-16T18:21:17.254Z,24.64
2023-06-16T18:23:45.073Z,24.61
2023-06-16T18:26:12.951Z,24.47
2023-06-16T18:28:40.771Z,24.31
2023-06-16T18:31:08.600Z,23.92
2023-06-16T18:33:36.405Z,23.87
2023-06-16T18:36:06.027Z,23.71
2023-06-16T18:38:33.771Z,23.67
2023-06-16T18:41:02.073Z,23.71
2023-06-16T18:43:29.825Z,23.58
2023-06-16T18:45:57.698Z,23.46
2023-06-16T18:48:25.727Z,23.25
2023-06-16T18:50:53.523Z,22.95
2023-06-16T18:53:23.358Z,22.78
2023-06-16T18:55:51.718Z,22.53
2023-06-16T18:58:19.576Z,22.35
2023-06-16T19:00:47.376Z,22.36
2023-06-16T19:03:15.202Z,22.28
2023-06-16T19:05:43.135Z,22.13
2023-06-16T19:08:12.400Z,22.20
2023-06-16T19:10:41.611Z,22.06
2023-06-16T19:13:10.444Z,21.97
2023-06-16T19:15:38.343Z,21.86
2023-06-16T19:18:06.215Z,21.90
2023-06-16T19:20:34.074Z,21.79
2023-06-16T19:23:01.859Z,21.65
2023-06-16T19:25:29.643Z,21.52
2023-06-16T19:27:58.937Z,21.49
2023-06-16T19:30:26.935Z,21.50
2023-06-16T19:32:54.860Z,21.30
2023-06-16T19:35:24.179Z,21.26
2023-06-16T19:37:52.132Z,21.07
2023-06-16T19:40:20.149Z,21.19
2023-06-16T19:42:48.148Z,21.17
2023-06-16T19:45:17.787Z,21.10
2023-06-16T19:47:47.058Z,21.08
2023-06-16T19:50:14.999Z,21.02
2023-06-16T19:52:44.346Z,20.90
2023-06-16T19:55:12.272Z,20.99
2023-06-16T19:57:39.981Z,20.96
2023-06-16T20:00:09.710Z,20.94
2023-06-16T20:02:39.387Z,20.88
2023-06-16T20:05:07.915Z,20.85
2023-06-16T20:07:37.961Z,20.64
2023-06-16T20:10:06.436Z,20.71
2023-06-16T20:12:34.222Z,20.63
2023-06-16T20:15:02.202Z,20.65
2023-06-16T20:17:29.992Z,20.68
2023-06-16T20:19:59.056Z,20.52
2023-06-16T20:22:26.856Z,20.39
2023-06-16T20:24:54.626Z,20.41
2023-06-16T20:27:22.381Z,20.38
2023-06-16T20:29:50.862Z,20.49
2023-06-16T20:32:18.677Z,20.38
2023-06-16T20:34:47.378Z,20.25
2023-06-16T20:37:18.478Z,20.34
2023-06-16T20:39:46.644Z,20.39
2023-06-16T20:42:15.343Z,20.28
2023-06-16T20:44:43.332Z,20.25
2023-06-16T20:47:11.115Z,20.17
2023-06-16T20:49:41.433Z,20.14
2023-06-16T20:52:09.727Z,20.05
2023-06-16T20:54:38.884Z,20.00
2023-06-16T20:57:07.825Z,19.94
2023-06-16T20:59:36.701Z,19.80
2023-06-16T21:02:07.303Z,19.71
2023-06-16T21:04:35.232Z,19.68
2023-06-16T21:07:03.870Z,19.64
2023-06-16T21:09:32.372Z,19.68
2023-06-16T21:12:01.458Z,19.55
2023-06-16T21:14:29.273Z,19.53
2023-06-16T21:16:57.022Z,19.46
2023-06-16T21:19:37.930Z,19.44
2023-06-16T21:22:09.997Z,19.30
2023-06-16T21:24:37.800Z,19.30
2023-06-16T21:27:07.615Z,19.34
2023-06-16T21:29:35.446Z,19.24
2023-06-16T21:32:03.466Z,19.20
2023-06-16T21:34:31.257Z,19.11
2023-06-16T21:37:00.185Z,19.20
2023-06-16T21:39:29.234Z,19.16
2023-06-16T21:41:57.003Z,19.08
2023-06-16T21:44:26.438Z,19.16
2023-06-16T21:46:54.226Z,19.13
2023-06-16T21:49:21.945Z,19.13
2023-06-16T21:51:49.708Z,19.03
2023-06-16T21:54:17.416Z,19.00
2023-06-16T21:56:45.175Z,19.11
2023-06-16T21:59:13.280Z,19.00
2023-06-16T22:01:42.366Z,19.02
2023-06-16T22:04:10.161Z,19.00
2023-06-16T22:06:38.457Z,19.15
2023-06-16T22:09:06.287Z,18.97
2023-06-16T22:11:34.237Z,18.89
2023-06-16T22:14:02.127Z,19.05
2023-06-16T22:16:30.039Z,18.99
2023-06-16T22:18:59.199Z,18.98
2023-06-16T22:21:26.992Z,18.94
2023-06-16T22:23:54.873Z,18.88
2023-06-16T22:26:23.509Z,18.96
2023-06-16T22:28:52.074Z,19.07
2023-06-16T22:31:21.172Z,18.98
2023-06-16T22:33:48.928Z,18.94
2023-06-16T22:36:18.055Z,18.89
2023-06-16T22:38:46.099Z,18.64
2023-06-16T22:41:13.828Z,18.69
2023-06-16T22:43:41.908Z,18.64
2023-06-16T22:46:09.729Z,18.61
2023-06-16T22:48:37.728Z,18.52
2023-06-16T22:51:06.022Z,18.48
2023-06-16T22:53:35.122Z,18.37
2023-06-16T22:56:05.089Z,18.35
2023-06-16T22:58:32.953Z,18.20
2023-06-16T23:01:00.698Z,18.32
2023-06-16T23:03:28.477Z,18.10
2023-06-16T23:05:56.302Z,18.15
2023-06-16T23:08:24.336Z,18.06
2023-06-16T23:10:53.494Z,17.92
2023-06-16T23:13:21.338Z,17.82
2023-06-16T23:15:50.770Z,17.92
2023-06-16T23:18:18.582Z,17.77
2023-06-16T23:20:46.711Z,17.93
2023-06-16T23:23:14.748Z,17.67
2023-06-16T23:25:42.663Z,17.51
2023-06-16T23:28:11.759Z,17.49
2023-06-16T23:30:40.121Z,17.53
2023-06-16T23:33:08.043Z,17.52
2023-06-16T23:35:35.796Z,17.34
2023-06-16T23:38:04.049Z,17.44
2023-06-16T23:40:31.801Z,17.40
2023-06-16T23:42:59.550Z,17.43
2023-06-16T23:45:28.750Z,17.51
2023-06-16T23:47:56.492Z,17.48
2023-06-16T23:50:24.337Z,17.43
2023-06-16T23:52:52.132Z,17.48
2023-06-16T23:55:19.875Z,17.42
2023-06-16T23:57:48.250Z,17.27
